createdAt,value
2022-07-31T00:02:30.390Z,16.60
2022-07-31T00:05:19.242Z,16.60
2022-07-31T00:08:07.801Z,16.60
2022-07-31T00:10:57.904Z,16.60
2022-07-31T00:13:56.397Z,16.50
2022-07-31T00:16:46.867Z,16.60
2022-07-31T00:19:35.508Z,16.60
2022-07-31T00:22:24.038Z,16.60
2022-07-31T00:25:14.060Z,16.60
2022-07-31T00:28:03.949Z,16.60
2022-07-31T00:30:52.504Z,16.50
2022-07-31T00:33:40.952Z,16.50
2022-07-31T00:36:30.138Z,16.60
2022-07-31T00:39:21.363Z,16.60
2022-07-31T00:42:18.491Z,16.60
2022-07-31T00:45:10.518Z,16.60
2022-07-31T00:48:03.952Z,16.50
2022-07-31T00:50:53.289Z,16.60
2022-07-31T00:53:41.837Z,16.60
2022-07-31T00:56:30.779Z,16.60
2022-07-31T00:59:24.305Z,16.60
2022-07-31T01:02:15.266Z,16.60
2022-07-31T01:05:04.794Z,16.60
2022-07-31T01:07:53.497Z,16.60
2022-07-31T01:10:55.699Z,16.60
2022-07-31T01:13:50.852Z,16.50
2022-07-31T01:16:44.162Z,16.50
2022-07-31T01:19:43.156Z,16.50
2022-07-31T01:22:54.049Z,16.60
2022-07-31T01:25:56.185Z,16.50
2022-07-31T01:29:04.299Z,16.60
2022-07-31T01:31:58.697Z,16.50
2022-07-31T01:34:51.746Z,16.60
2022-07-31T01:37:44.905Z,16.60
2022-07-31T01:40:37.261Z,16.50
2022-07-31T01:43:31.001Z,16.50
2022-07-31T01:46:22.801Z,16.50
2022-07-31T01:49:13.534Z,16.50
2022-07-31T01:52:06.373Z,16.50
2022-07-31T01:54:56.879Z,16.50
2022-07-31T01:57:48.769Z,16.50
2022-07-31T02:00:38.622Z,16.50
2022-07-31T02:03:43.765Z,16.40
2022-07-31T02:06:36.327Z,16.30
2022-07-31T02:09:26.121Z,16.20
2022-07-31T02:12:15.367Z,16.20
2022-07-31T02:15:07.450Z,16.20
2022-07-31T02:17:58.457Z,16.20
2022-07-31T02:21:09.356Z,16.20
2022-07-31T02:23:58.931Z,16.20
2022-07-31T02:26:49.246Z,16.20
2022-07-31T02:29:39.053Z,16.10
2022-07-31T02:32:28.183Z,16.20
2022-07-31T02:35:22.422Z,16.10
2022-07-31T02:38:22.208Z,16.10
2022-07-31T02:41:13.698Z,16.10
2022-07-31T02:44:02.682Z,16.10
2022-07-31T02:46:51.614Z,16.10
2022-07-31T02:49:40.639Z,16.00
2022-07-31T02:52:31.035Z,16.00
2022-07-31T02:55:20.972Z,16.10
2022-07-31T02:58:09.674Z,16.00
2022-07-31T03:01:02.742Z,16.00
2022-07-31T03:03:53.372Z,16.10
2022-07-31T03:06:42.110Z,16.10
2022-07-31T03:09:31.255Z,16.00
2022-07-31T03:12:41.748Z,16.00
2022-07-31T03:15:31.840Z,16.10
2022-07-31T03:18:21.865Z,16.10
2022-07-31T03:21:12.820Z,16.00
2022-07-31T03:24:03.241Z,16.10
2022-07-31T03:26:52.212Z,16.10
2022-07-31T03:29:43.868Z,16.10
2022-07-31T03:32:33.446Z,16.10
2022-07-31T03:35:22.105Z,16.10
2022-07-31T03:38:39.722Z,16.10
2022-07-31T03:41:22.294Z,16.10
2022-07-31T03:44:11.518Z,16.00
2022-07-31T03:47:02.157Z,16.00
2022-07-31T03:49:51.460Z,16.00
2022-07-31T03:52:40.209Z,16.00
2022-07-31T03:55:30.280Z,16.10
2022-07-31T03:58:21.164Z,16.10
2022-07-31T04:01:13.126Z,16.10
2022-07-31T04:04:03.016Z,16.20
2022-07-31T04:07:10.872Z,16.20
2022-07-31T04:09:59.661Z,16.20
2022-07-31T04:12:48.175Z,16.10
2022-07-31T04:15:39.225Z,16.20
2022-07-31T04:18:28.004Z,16.10
2022-07-31T04:21:17.990Z,16.20
2022-07-31T04:24:07.779Z,16.20
2022-07-31T04:27:22.547Z,16.20
2022-07-31T04:30:12.074Z,16.20
2022-07-31T04:33:01.299Z,16.10
2022-07-31T04:35:50.125Z,16.20
2022-07-31T04:38:40.022Z,16.30
2022-07-31T04:41:29.353Z,16.40
2022-07-31T04:44:18.283Z,16.30
2022-07-31T04:47:20.668Z,16.20
2022-07-31T04:50:11.682Z,16.20
2022-07-31T04:53:16.215Z,16.30
2022-07-31T04:56:24.283Z,16.30
2022-07-31T04:59:15.376Z,16.30
2022-07-31T05:02:07.320Z,16.30
2022-07-31T05:04:57.358Z,16.30
2022-07-31T05:07:51.802Z,16.30
2022-07-31T05:11:00.343Z,16.30
2022-07-31T05:13:51.826Z,16.30
2022-07-31T05:16:40.394Z,16.30
2022-07-31T05:19:30.121Z,16.30
2022-07-31T05:22:37.469Z,16.40
2022-07-31T05:25:44.787Z,16.30
2022-07-31T05:28:33.567Z,16.40
2022-07-31T05:31:23.836Z,16.30
2022-07-31T05:34:12.388Z,16.30
2022-07-31T05:37:02.212Z,16.30
2022-07-31T05:39:53.110Z,16.30
2022-07-31T05:42:59.962Z,16.30
2022-07-31T05:46:14.133Z,16.30
2022-07-31T05:49:04.581Z,16.40
2022-07-31T05:51:54.605Z,16.40
2022-07-31T05:54:45.747Z,16.40
2022-07-31T05:57:53.753Z,16.40
2022-07-31T06:00:43.126Z,16.40
2022-07-31T06:03:51.623Z,16.30
2022-07-31T06:07:01.582Z,16.30
2022-07-31T06:09:50.184Z,16.30
2022-07-31T06:12:39.027Z,16.30
2022-07-31T06:15:27.934Z,16.20
2022-07-31T06:18:16.548Z,16.30
2022-07-31T06:21:05.282Z,16.30
2022-07-31T06:23:55.617Z,16.30
2022-07-31T06:26:51.349Z,16.30
2022-07-31T06:29:41.915Z,16.20
2022-07-31T06:32:31.820Z,16.20
2022-07-31T06:35:20.332Z,16.20
2022-07-31T06:38:30.839Z,16.20
2022-07-31T06:41:48.455Z,16.20
2022-07-31T06:44:53.043Z,16.20
2022-07-31T06:48:14.487Z,16.30
2022-07-31T06:51:29.567Z,16.30
2022-07-31T06:54:17.020Z,16.20
2022-07-31T06:57:07.615Z,16.20
2022-07-31T06:59:56.437Z,16.30
2022-07-31T07:02:45.317Z,16.20
2022-07-31T07:05:34.053Z,16.30
2022-07-31T07:08:23.879Z,16.30
2022-07-31T07:11:12.675Z,16.30
2022-07-31T07:14:06.986Z,16.30
2022-07-31T07:16:55.582Z,16.40
2022-07-31T07:19:44.315Z,16.30
2022-07-31T07:22:38.412Z,16.40
2022-07-31T07:25:28.815Z,16.50
2022-07-31T07:28:30.978Z,16.50
2022-07-31T07:31:23.701Z,16.50
2022-07-31T07:34:12.559Z,16.60
2022-07-31T07:37:01.343Z,16.60
2022-07-31T07:39:52.840Z,16.60
2022-07-31T07:42:41.427Z,16.70
2022-07-31T07:45:30.036Z,16.70
2022-07-31T07:48:20.888Z,16.70
2022-07-31T07:51:32.407Z,16.80
2022-07-31T07:54:28.471Z,16.80
2022-07-31T07:57:49.327Z,16.80
2022-07-31T08:01:04.095Z,16.90
2022-07-31T08:03:54.107Z,17.00
2022-07-31T08:06:42.907Z,17.00
2022-07-31T08:09:31.838Z,17.10
2022-07-31T08:12:39.186Z,17.20
2022-07-31T08:15:47.596Z,17.20
2022-07-31T08:18:46.713Z,17.20
2022-07-31T08:21:37.519Z,17.20
2022-07-31T08:24:26.153Z,17.20
2022-07-31T08:27:28.506Z,17.20
2022-07-31T08:30:30.976Z,17.30
2022-07-31T08:33:20.206Z,17.20
2022-07-31T08:36:16.005Z,17.30
2022-07-31T08:39:06.462Z,17.30
2022-07-31T08:42:10.352Z,17.30
2022-07-31T08:44:58.963Z,17.30
2022-07-31T08:47:52.157Z,17.40
2022-07-31T08:50:52.064Z,17.40
2022-07-31T08:54:11.762Z,17.50
2022-07-31T08:57:00.745Z,17.50
2022-07-31T08:59:52.511Z,17.50
2022-07-31T09:02:41.648Z,17.60
2022-07-31T09:05:48.874Z,17.70
2022-07-31T09:08:38.830Z,17.70
2022-07-31T09:11:30.649Z,17.60
2022-07-31T09:14:49.970Z,17.70
2022-07-31T09:17:38.685Z,17.70
2022-07-31T09:20:29.656Z,17.70
2022-07-31T09:23:19.950Z,17.70
2022-07-31T09:26:09.873Z,17.70
2022-07-31T09:29:02.523Z,17.70
2022-07-31T09:31:51.607Z,17.80
2022-07-31T09:34:48.432Z,17.80
2022-07-31T09:37:40.368Z,17.80
2022-07-31T09:40:55.497Z,17.80
2022-07-31T09:43:55.820Z,18.00
2022-07-31T09:46:49.844Z,17.90
2022-07-31T09:49:39.343Z,18.00
2022-07-31T09:52:29.574Z,18.00
2022-07-31T09:55:18.161Z,18.00
2022-07-31T09:58:08.069Z,17.90
2022-07-31T10:01:02.874Z,17.80
2022-07-31T10:03:54.761Z,17.80
2022-07-31T10:06:44.878Z,17.90
2022-07-31T10:09:34.947Z,17.90
2022-07-31T10:12:35.055Z,17.90
2022-07-31T10:15:26.566Z,17.90
2022-07-31T10:18:51.702Z,17.80
2022-07-31T10:22:01.541Z,17.80
2022-07-31T10:24:54.412Z,17.90
2022-07-31T10:27:43.512Z,17.90
2022-07-31T10:30:38.967Z,17.90
2022-07-31T10:33:43.426Z,18.00
2022-07-31T10:36:55.777Z,17.90
2022-07-31T10:40:21.347Z,17.90
2022-07-31T10:43:20.985Z,17.90
2022-07-31T10:46:30.261Z,17.90
2022-07-31T10:49:42.091Z,17.90
2022-07-31T10:53:09.642Z,18.00
2022-07-31T10:56:19.632Z,18.00
2022-07-31T10:59:29.608Z,18.00
2022-07-31T11:02:33.900Z,18.00
2022-07-31T11:06:02.107Z,18.10
2022-07-31T11:09:05.173Z,18.10
2022-07-31T11:12:20.476Z,18.00
2022-07-31T11:15:30.707Z,18.00
2022-07-31T11:18:37.839Z,17.90
2022-07-31T11:21:39.301Z,17.90
2022-07-31T11:24:28.445Z,17.90
2022-07-31T11:27:17.079Z,18.10
2022-07-31T11:30:13.489Z,18.10
2022-07-31T11:33:02.761Z,18.20
2022-07-31T11:35:51.351Z,18.20
2022-07-31T11:38:42.439Z,18.20
2022-07-31T11:41:43.933Z,18.30
2022-07-31T11:44:33.374Z,18.40
2022-07-31T11:48:05.775Z,18.30
2022-07-31T11:50:40.901Z,18.40
2022-07-31T11:53:29.589Z,18.40
2022-07-31T11:56:19.747Z,18.20
2022-07-31T11:59:08.310Z,18.20
2022-07-31T12:02:19.401Z,18.30
2022-07-31T12:05:12.758Z,18.20
2022-07-31T12:08:01.648Z,18.30
2022-07-31T12:10:52.661Z,18.30
2022-07-31T12:13:41.349Z,18.30
2022-07-31T12:16:40.217Z,18.20
2022-07-31T12:19:30.408Z,18.30
2022-07-31T12:22:27.154Z,18.30
2022-07-31T12:25:15.783Z,18.30
2022-07-31T12:28:04.377Z,18.40
2022-07-31T12:31:00.814Z,18.30
2022-07-31T12:33:49.566Z,18.40
2022-07-31T12:36:38.255Z,18.30
2022-07-31T12:39:53.724Z,18.40
2022-07-31T12:42:41.768Z,18.50
2022-07-31T12:45:32.911Z,18.40
2022-07-31T12:48:21.519Z,18.40
2022-07-31T12:51:11.138Z,18.30
2022-07-31T12:53:59.726Z,18.40
2022-07-31T12:56:49.939Z,18.40
2022-07-31T12:59:39.006Z,18.30
2022-07-31T13:02:27.603Z,18.30
2022-07-31T13:05:16.127Z,18.40
2022-07-31T13:08:05.022Z,18.50
2022-07-31T13:10:53.824Z,18.50
2022-07-31T13:13:46.082Z,18.50
2022-07-31T13:16:34.906Z,18.40
2022-07-31T13:19:24.251Z,18.30
2022-07-31T13:22:12.798Z,18.20
2022-07-31T13:25:01.525Z,18.20
2022-07-31T13:27:50.068Z,18.30
2022-07-31T13:30:39.923Z,18.40
2022-07-31T13:33:28.557Z,18.40
2022-07-31T13:36:17.071Z,18.30
2022-07-31T13:39:05.625Z,18.20
2022-07-31T13:41:54.540Z,18.10
2022-07-31T13:44:43.259Z,18.10
2022-07-31T13:47:50.976Z,18.10
2022-07-31T13:50:41.517Z,17.90
2022-07-31T13:53:30.287Z,17.90
2022-07-31T13:56:39.253Z,17.90
2022-07-31T13:59:29.486Z,17.90
2022-07-31T14:02:18.515Z,18.00
2022-07-31T14:05:09.695Z,17.90
2022-07-31T14:08:00.350Z,17.80
2022-07-31T14:11:14.891Z,17.70
2022-07-31T14:14:03.754Z,17.80
2022-07-31T14:16:52.307Z,17.70
2022-07-31T14:19:44.336Z,17.80
2022-07-31T14:22:34.753Z,17.80
2022-07-31T14:25:23.384Z,17.80
2022-07-31T14:28:12.134Z,17.70
2022-07-31T14:31:00.904Z,17.70
2022-07-31T14:33:49.459Z,17.60
2022-07-31T14:36:38.433Z,17.70
2022-07-31T14:39:28.358Z,17.60
2022-07-31T14:42:22.041Z,17.60
2022-07-31T14:45:13.989Z,17.60
2022-07-31T14:48:02.569Z,17.70
2022-07-31T14:50:51.092Z,17.70
2022-07-31T14:53:39.682Z,17.70
2022-07-31T14:56:58.426Z,17.70
2022-07-31T14:59:38.442Z,17.80
2022-07-31T15:02:27.110Z,17.70
2022-07-31T15:06:51.097Z,17.80
2022-07-31T15:08:24.491Z,17.70
2022-07-31T15:11:13.068Z,17.70
2022-07-31T15:14:03.082Z,17.70
2022-07-31T15:16:51.717Z,17.70
2022-07-31T15:19:40.240Z,17.70
2022-07-31T15:22:29.197Z,17.70
2022-07-31T15:25:17.738Z,17.70
2022-07-31T15:28:06.245Z,17.60
2022-07-31T15:31:00.935Z,17.60
2022-07-31T15:33:49.794Z,17.70
2022-07-31T15:36:38.418Z,17.60
2022-07-31T15:39:27.162Z,17.60
2022-07-31T15:42:19.193Z,17.50
2022-07-31T15:45:11.817Z,17.40
2022-07-31T15:48:01.796Z,17.40
2022-07-31T15:50:50.263Z,17.30
2022-07-31T15:53:39.373Z,17.30
2022-07-31T15:56:28.127Z,17.20
2022-07-31T15:59:16.717Z,17.10
2022-07-31T16:02:05.280Z,17.30
2022-07-31T16:04:59.705Z,17.30
2022-07-31T16:08:31.905Z,17.20
2022-07-31T16:11:08.333Z,17.30
2022-07-31T16:13:56.952Z,17.20
2022-07-31T16:16:46.035Z,17.20
2022-07-31T16:19:35.292Z,17.10
2022-07-31T16:22:26.149Z,17.00
2022-07-31T16:25:14.936Z,16.90
2022-07-31T16:28:03.553Z,16.80
2022-07-31T16:30:52.507Z,16.80
2022-07-31T16:33:50.657Z,16.80
2022-07-31T16:36:39.549Z,16.80
2022-07-31T16:39:29.389Z,16.70
2022-07-31T16:42:17.989Z,16.60
2022-07-31T16:45:07.290Z,16.60
2022-07-31T16:47:55.779Z,16.70
2022-07-31T16:50:44.567Z,16.60
2022-07-31T16:54:13.909Z,16.50
2022-07-31T16:56:46.511Z,16.50
2022-07-31T16:59:56.805Z,16.50
2022-07-31T17:02:44.814Z,16.50
2022-07-31T17:05:33.783Z,16.40
2022-07-31T17:08:22.512Z,16.40
2022-07-31T17:11:11.316Z,16.50
2022-07-31T17:14:01.559Z,16.50
2022-07-31T17:16:51.260Z,16.40
2022-07-31T17:19:45.284Z,16.50
2022-07-31T17:22:38.118Z,16.50
2022-07-31T17:25:28.741Z,16.50
2022-07-31T17:28:17.302Z,16.50
2022-07-31T17:31:07.152Z,16.50
2022-07-31T17:34:00.741Z,16.60
2022-07-31T17:36:52.082Z,16.70
2022-07-31T17:39:40.791Z,16.60
2022-07-31T17:42:29.574Z,16.60
2022-07-31T17:45:19.583Z,16.60
2022-07-31T17:48:10.056Z,16.60
2022-07-31T17:50:59.049Z,16.60
2022-07-31T17:53:55.130Z,16.60
2022-07-31T17:56:47.928Z,16.60
2022-07-31T17:59:40.610Z,16.50
2022-07-31T18:02:29.387Z,16.30
2022-07-31T18:05:19.460Z,16.40
2022-07-31T18:08:08.146Z,16.50
2022-07-31T18:10:56.678Z,16.50
2022-07-31T18:13:48.358Z,16.50
2022-07-31T18:16:40.213Z,16.50
2022-07-31T18:19:29.157Z,16.60
2022-07-31T18:22:19.056Z,16.50
2022-07-31T18:25:09.676Z,16.60
2022-07-31T18:27:58.350Z,16.60
2022-07-31T18:30:46.986Z,16.50
2022-07-31T18:33:35.551Z,16.40
2022-07-31T18:36:24.792Z,16.50
2022-07-31T18:39:14.768Z,16.30
2022-07-31T18:42:03.458Z,16.20
2022-07-31T18:44:52.478Z,16.30
2022-07-31T18:47:41.115Z,16.30
2022-07-31T18:51:01.573Z,16.20
2022-07-31T18:53:39.497Z,16.30
2022-07-31T18:56:29.433Z,16.30
2022-07-31T18:59:17.907Z,16.40
2022-07-31T19:02:11.322Z,16.50
2022-07-31T19:05:00.893Z,16.40
2022-07-31T19:07:49.781Z,16.40
2022-07-31T19:10:38.305Z,16.40
2022-07-31T19:13:29.276Z,16.30
2022-07-31T19:16:18.107Z,16.30
2022-07-31T19:19:09.988Z,16.20
2022-07-31T19:21:59.289Z,16.20
2022-07-31T19:24:50.893Z,16.20
2022-07-31T19:27:48.061Z,16.30
2022-07-31T19:30:45.658Z,16.20
2022-07-31T19:33:34.642Z,16.20
2022-07-31T19:36:23.310Z,16.30
2022-07-31T19:39:11.878Z,16.30
2022-07-31T19:42:11.472Z,16.20
2022-07-31T19:45:00.942Z,16.20
2022-07-31T19:47:51.444Z,16.20
2022-07-31T19:50:40.015Z,16.20
2022-07-31T19:53:28.534Z,16.20
2022-07-31T19:56:20.767Z,16.20
2022-07-31T19:59:09.722Z,16.20
2022-07-31T20:01:59.923Z,16.20
2022-07-31T20:04:49.995Z,16.20
2022-07-31T20:07:39.313Z,16.30
2022-07-31T20:10:28.594Z,16.30
2022-07-31T20:13:17.157Z,16.30
2022-07-31T20:16:06.373Z,16.30
2022-07-31T20:18:54.865Z,16.30
2022-07-31T20:21:44.755Z,16.40
2022-07-31T20:24:33.454Z,16.30
2022-07-31T20:27:21.998Z,16.40
2022-07-31T20:30:12.037Z,16.40
2022-07-31T20:33:00.819Z,16.40
2022-07-31T20:35:50.326Z,16.50
2022-07-31T20:38:40.369Z,16.30
2022-07-31T20:41:29.419Z,16.30
2022-07-31T20:44:18.257Z,16.30
2022-07-31T20:47:07.011Z,16.30
2022-07-31T20:49:55.535Z,16.30
2022-07-31T20:52:48.491Z,16.30
2022-07-31T20:55:38.625Z,16.30
2022-07-31T20:58:28.369Z,16.30
2022-07-31T21:01:18.360Z,16.30
2022-07-31T21:04:07.778Z,16.30
2022-07-31T21:06:56.363Z,16.30
2022-07-31T21:09:45.033Z,16.30
2022-07-31T21:12:35.073Z,16.30
2022-07-31T21:15:42.367Z,16.20
2022-07-31T21:18:34.696Z,16.20
2022-07-31T21:21:24.416Z,16.20
2022-07-31T21:24:13.195Z,16.20
2022-07-31T21:27:02.252Z,16.20
2022-07-31T21:29:56.685Z,16.10
2022-07-31T21:32:45.930Z,16.20
2022-07-31T21:35:35.948Z,16.20
2022-07-31T21:38:26.461Z,16.20
2022-07-31T21:41:16.473Z,16.20
2022-07-31T21:44:05.461Z,16.20
2022-07-31T21:47:01.304Z,16.30
2022-07-31T21:49:58.167Z,16.30
2022-07-31T21:52:47.071Z,16.30
2022-07-31T21:55:35.665Z,16.30
2022-07-31T21:58:24.279Z,16.30
2022-07-31T22:01:13.797Z,16.30
2022-07-31T22:04:04.067Z,16.30
2022-07-31T22:07:10.250Z,16.30
2022-07-31T22:09:58.839Z,16.30
2022-07-31T22:12:47.766Z,16.20
2022-07-31T22:15:52.671Z,16.20
2022-07-31T22:18:45.343Z,16.30
2022-07-31T22:21:35.960Z,16.20
2022-07-31T22:24:24.743Z,16.20
2022-07-31T22:27:32.679Z,16.30
2022-07-31T22:30:22.726Z,16.20
2022-07-31T22:33:11.440Z,16.30
2022-07-31T22:36:03.427Z,16.30
2022-07-31T22:38:53.370Z,16.30
2022-07-31T22:41:41.996Z,16.40
2022-07-31T22:44:31.014Z,16.40
2022-07-31T22:47:19.590Z,16.40
2022-07-31T22:50:10.139Z,16.40
2022-07-31T22:53:02.395Z,16.30
2022-07-31T22:55:53.091Z,16.30
2022-07-31T22:58:41.819Z,16.40
2022-07-31T23:01:30.300Z,16.40
2022-07-31T23:04:18.783Z,16.50
2022-07-31T23:07:07.472Z,16.50
2022-07-31T23:09:55.991Z,16.40
2022-07-31T23:12:46.150Z,16.40
2022-07-31T23:15:34.804Z,16.40
2022-07-31T23:18:23.547Z,16.40
2022-07-31T23:21:12.072Z,16.40
2022-07-31T23:24:00.820Z,16.40
2022-07-31T23:26:49.372Z,16.50
2022-07-31T23:29:41.394Z,16.40
2022-07-31T23:32:30.428Z,16.40
2022-07-31T23:35:19.008Z,16.40
2022-07-31T23:38:07.510Z,16.40
2022-07-31T23:40:56.463Z,16.50
2022-07-31T23:43:55.191Z,16.40
2022-07-31T23:46:45.378Z,16.40
2022-07-31T23:49:38.097Z,16.50
2022-07-31T23:52:26.711Z,16.40
2022-07-31T23:55:15.702Z,16.50
2022-07-31T23:58:04.317Z,16.40
